x

South Brooks (46132) Wave Buoy

7:00 - Thu 25th Dec 2014 All times are PST. -8 hours from GMT.

  • Sig Wave height 10.8ft
  • Peak Period 10s
  • Wind
    11mph, 13mph gusts
  • Sea Temp 53°f
  • Aire Temp 48°f
  • Sea Pressure 1021.2mb
  • South Brooks
  • South Brooks

More Historic Weather Station data

Upgrade to MSW Pro to gain access to the past 30 days of data for over 8000 Wavebouys and Weather Stations around the globe.

Join Pro

Comparision Forecast

View Surf forecast
   
jue 12/25 7:00 11ft 10s 11 13 mph 1021.2mb 53f 48f
6:00 10ft 11s 16 18 mph 1021.2mb 53f 48f
5:00 11ft 10s 16 20 mph 1020.9mb 53f 48f
4:00 12ft 11s 18 22 mph 1020.8mb 53f 49f
3:00 12.5ft 11s 20 25 mph 1020.9mb 53f 49f
2:00 12ft 9s 20 27 mph 1020.6mb 53f 49f
1:00 13ft 11s 18 25 mph 1020.3mb 53f 48f
12:00 13ft 10s 18 22 mph 1020.4mb 53f 48f
mié 12/24 11:00 14ft 11s 22 27 mph 1020.4mb 53f 48f
10:00 15ft 12s 20 25 mph 1019.6mb 53f 48f
9:00 16ft 12s 25 29 mph 1019.3mb 53f 49f
8:00 15.5ft 12s 27 31 mph 1019.2mb 53f 49f
7:00 15.5ft 12s 25 31 mph 1018.9mb 53f 49f
6:00 16ft 13s 27 34 mph 1018.2mb 52f 49f
5:00 16.5ft 11s 27 36 mph 1017.7mb 51f 48f
4:00 17.5ft 13s 29 34 mph 1016.9mb 51f 49f
3:00 17ft 12s 29 36 mph 1015.9mb 51f 50f
2:00 17.5ft 12s 29 38 mph 1015.3mb 51f 50f
1:00 18ft 11s 29 45 mph 1015mb 51f 49f
12:00 17.5ft 13s 31 38 mph 1014.8mb 51f 50f
11:00 17.5ft 14s 31 40 mph 1014.6mb 51f 50f
10:00 16.5ft 13s 27 38 mph 1014.3mb 51f 49f
9:00 18.5ft 13s 29 38 mph 1013.6mb 51f 48f
8:00 21ft 14s 31 43 mph 1013.2mb 52f 46f
7:00 19.5ft 14s 22 34 mph 1012.9mb 52f 48f
6:00 20ft 13s 29 40 mph 1012.2mb 52f 48f
5:00 20ft 14s 29 36 mph 1012mb 52f 47f
4:00 19.5ft 15s 20 25 mph 1012.1mb 51f 48f
3:00 20.5ft 15s 18 27 mph 1012.5mb 52f 47f
2:00 18.5ft 16s 27 34 mph 1012.9mb 52f 48f
1:00 19ft 14s 22 29 mph 1013.2mb 52f 49f
12:00 18.5ft 15s 22 29 mph 1014.2mb 52f 49f
mar 12/23 11:00 19ft 14s 22 27 mph 1014.4mb 52f 49f
10:00 19.5ft 14s 18 25 mph 1014.6mb 51f 49f
9:00 19.5ft 15s 20 27 mph 1014.9mb 51f 49f
8:00 21ft 14s 16 25 mph 1015.5mb 51f 50f
7:00 21.5ft 13s 13 18 mph 1015.9mb 51f 50f
6:00 20ft 16s 16 22 mph 1015.9mb 51f 49f
5:00 24ft 15s 13 18 mph 1016.4mb 51f 50f
4:00 19.5ft 14s 16 22 mph 1016.6mb 51f 49f
3:00 20ft 14s 20 27 mph 1016.5mb 51f 51f
2:00 16.5ft 16s 18 27 mph 1016.7mb 51f 51f
1:00 13.5ft 17s 20 34 mph 1017.2mb 51f 50f
12:00 11ft 8s 20 25 mph 1017.3mb 51f 51f
11:00 10.5ft 14s 20 27 mph 1017.8mb 51f 52f
10:00 10ft 7s 16 22 mph 1017.9mb 52f 52f
9:00 10ft 8s 18 22 mph 1017.3mb 52f 51f
8:00 10.5ft 8s 16 20 mph 1017mb 52f 52f
7:00 12ft 8s 11 18 mph 1016.9mb 52f 52f
6:00 13ft 8s 13 18 mph 1016.4mb 51f 52f
5:00 15ft 8s 9 13 mph 1015.9mb 52f 53f
4:00 14.5ft 8s 11 18 mph 1015.1mb 52f 53f
3:00 15.5ft 8s 36 45 mph 1013.7mb 52f 50f
1:00 13.5ft 8s 40 56 mph 1014mb 52f 49f
12:00 12ft 6s 38 47 mph 1015.6mb 52f 49f
lun 12/22 11:00 11.5ft 6s 38 47 mph 1017.3mb 52f 49f
10:00 10.5ft 14s 38 45 mph 1017.7mb 52f 50f
9:00 10.5ft 14s 31 38 mph 1020mb 52f 48f
8:00 10.5ft 12s 29 36 mph 1021.1mb 52f 48f
6:00 12ft 14s 27 34 mph 1022.9mb 52f 49f
5:00 12.5ft 12s 22 29 mph 1024.4mb 52f 50f
2:00 14ft 14s 11 16 mph 1026mb 52f 51f
1:00 13.5ft 15s 9 13 mph 1026.2mb 52f 50f
12:00 13ft 12s 4 7 mph 1026.9mb 52f 50f
11:00 14ft 13s 9 13 mph 1026.7mb 52f 50f
10:00 15.5ft 15s 4 9 mph 1026.6mb 52f 51f
9:00 13.5ft 14s 7 11 mph 1026.1mb 52f 51f
8:00 14ft 12s 9 13 mph 1026.3mb 52f 51f
7:00 13ft 14s 11 16 mph 1025.5mb 53f 51f
6:00 14.5ft 12s 11 16 mph 1025.4mb 53f 51f
5:00 14.5ft 13s 16 20 mph 1024.8mb 53f 51f
4:00 15ft 13s 16 20 mph 1023.7mb 53f 51f
3:00 14.5ft 13s 18 22 mph 1023.1mb 53f 51f
2:00 15ft 12s 20 25 mph 1022.1mb 53f 51f
1:00 15ft 12s 20 27 mph 1020.9mb 53f 51f
12:00 16.5ft 12s 22 27 mph 1020mb 53f 51f
dom 12/21 11:00 16ft 12s 20 25 mph 1019.6mb 53f 51f
10:00 13.5ft 13s 20 25 mph 1018.9mb 53f 50f
9:00 14.5ft 13s 13 20 mph 1018mb 53f 51f
8:00 15ft 12s 16 20 mph 1017.3mb 53f 51f
7:00 14ft 11s 18 22 mph 1016.6mb 53f 51f
6:00 14ft 13s 20 25 mph 1015.8mb 53f 51f
5:00 14ft 12s 22 27 mph 1015mb 53f 51f